createdAt,value
2023-03-02T00:02:32.598Z,31.50
2023-03-02T00:05:24.601Z,25.90
2023-03-02T00:08:17.522Z,26.77
2023-03-02T00:11:09.236Z,27.93
2023-03-02T00:14:00.899Z,28.65
2023-03-02T00:16:52.396Z,28.83
2023-03-02T00:19:45.026Z,25.45
2023-03-02T00:22:36.586Z,28.55
2023-03-02T00:25:28.956Z,25.95
2023-03-02T00:28:32.459Z,26.97
2023-03-02T00:31:24.940Z,27.27
2023-03-02T00:34:17.130Z,26.17
2023-03-02T00:37:09.270Z,28.52
2023-03-02T00:40:00.879Z,27.00
2023-03-02T00:42:52.342Z,29.02
2023-03-02T00:45:43.948Z,26.85
2023-03-02T00:48:35.240Z,29.07
2023-03-02T00:51:26.433Z,26.68
2023-03-02T00:54:17.577Z,27.50
2023-03-02T00:57:09.063Z,31.48
2023-03-02T01:00:00.879Z,27.70
2023-03-02T01:02:54.067Z,28.75
2023-03-02T01:05:47.252Z,26.48
2023-03-02T01:08:38.758Z,26.07
2023-03-02T01:11:31.826Z,28.17
2023-03-02T01:14:23.789Z,30.10
2023-03-02T01:17:16.212Z,28.20
2023-03-02T01:20:11.014Z,27.32
2023-03-02T01:23:02.272Z,27.60
2023-03-02T01:25:53.713Z,29.63
2023-03-02T01:28:45.300Z,30.75
2023-03-02T01:31:37.143Z,25.55
2023-03-02T01:34:28.955Z,28.42
2023-03-02T01:37:20.859Z,28.42
2023-03-02T01:40:16.156Z,28.35
2023-03-02T01:43:14.689Z,29.20
2023-03-02T01:46:09.845Z,29.65
2023-03-02T01:49:07.834Z,30.48
2023-03-02T01:52:14.127Z,29.87
2023-03-02T01:55:08.761Z,26.50
2023-03-02T01:58:01.981Z,31.05
2023-03-02T02:00:56.269Z,27.48
2023-03-02T02:03:51.297Z,27.65
2023-03-02T02:06:45.917Z,29.82
2023-03-02T02:09:40.535Z,29.57
2023-03-02T02:12:32.269Z,28.02
2023-03-02T02:15:24.199Z,27.80
2023-03-02T02:18:15.576Z,29.32
2023-03-02T02:21:17.104Z,29.98
2023-03-02T02:24:10.880Z,22.27
2023-03-02T02:27:02.531Z,28.92
2023-03-02T02:29:56.440Z,29.10
2023-03-02T02:32:50.011Z,28.55
2023-03-02T02:35:42.438Z,30.35
2023-03-02T02:38:35.941Z,28.38
2023-03-02T02:41:31.143Z,29.85
2023-03-02T02:44:22.613Z,29.65
2023-03-02T02:47:19.458Z,29.25
2023-03-02T02:50:18.651Z,30.82
2023-03-02T02:53:13.896Z,29.55
2023-03-02T02:56:07.932Z,28.45
2023-03-02T02:59:06.932Z,28.92
2023-03-02T03:01:59.278Z,30.20
2023-03-02T03:04:56.246Z,31.57
2023-03-02T03:07:47.649Z,29.90
2023-03-02T03:10:42.465Z,28.90
2023-03-02T03:13:36.323Z,29.12
2023-03-02T03:16:30.703Z,29.35
2023-03-02T03:19:25.100Z,28.73
2023-03-02T03:22:18.823Z,28.73
2023-03-02T03:25:14.574Z,27.40
2023-03-02T03:28:07.162Z,30.65
2023-03-02T03:31:08.524Z,27.17
2023-03-02T03:33:59.043Z,29.07
2023-03-02T03:52:49.072Z,30.80
2023-03-02T03:55:41.958Z,32.98
2023-03-02T03:58:33.924Z,30.60
2023-03-02T04:01:27.300Z,30.50
2023-03-02T04:04:21.147Z,28.05
2023-03-02T04:07:13.092Z,29.65
2023-03-02T04:10:08.913Z,31.60
2023-03-02T04:13:01.968Z,32.65
2023-03-02T04:15:53.931Z,29.15
2023-03-02T04:18:45.552Z,30.80
2023-03-02T04:21:36.961Z,32.13
2023-03-02T04:24:28.360Z,29.75
2023-03-02T04:27:21.885Z,27.27
2023-03-02T04:30:16.450Z,30.45
2023-03-02T04:33:08.843Z,30.55
2023-03-02T04:36:00.539Z,32.30
2023-03-02T04:38:53.242Z,31.33
2023-03-02T04:41:45.163Z,29.25
2023-03-02T04:44:36.857Z,30.77
2023-03-02T04:47:28.268Z,29.42
2023-03-02T04:50:19.785Z,32.25
2023-03-02T04:53:12.234Z,30.45
2023-03-02T04:56:05.813Z,30.17
2023-03-02T04:58:57.944Z,33.53
2023-03-02T05:01:50.054Z,32.40
2023-03-02T05:04:42.544Z,30.75
2023-03-02T05:07:33.955Z,30.35
2023-03-02T05:10:26.691Z,31.62
2023-03-02T05:13:20.418Z,31.82
2023-03-02T05:16:11.958Z,30.35
2023-03-02T05:19:04.418Z,30.82
2023-03-02T05:21:56.682Z,31.60
2023-03-02T05:24:48.291Z,32.58
2023-03-02T05:27:39.872Z,30.30
2023-03-02T05:30:32.764Z,33.53
2023-03-02T05:33:35.608Z,30.97
2023-03-02T05:36:20.751Z,29.82
2023-03-02T05:39:12.901Z,32.73
2023-03-02T05:42:06.061Z,32.80
2023-03-02T05:44:57.801Z,34.50
2023-03-02T05:47:49.566Z,33.23
2023-03-02T05:50:41.135Z,31.93
2023-03-02T05:56:12.824Z,29.18
2023-03-02T05:59:03.970Z,33.42
2023-03-02T06:01:57.526Z,31.50
2023-03-02T06:04:49.291Z,31.87
2023-03-02T06:07:41.308Z,30.23
2023-03-02T06:10:33.142Z,30.10
2023-03-02T06:13:24.786Z,29.87
2023-03-02T06:16:16.515Z,33.08
2023-03-02T06:19:09.029Z,29.87
2023-03-02T06:22:01.484Z,32.40
2023-03-02T06:24:54.252Z,31.55
2023-03-02T06:27:46.026Z,34.38
2023-03-02T06:30:38.154Z,30.08
2023-03-02T06:33:30.838Z,31.87
2023-03-02T06:36:22.690Z,33.33
2023-03-02T06:39:16.930Z,32.58
2023-03-02T06:42:08.528Z,31.45
2023-03-02T06:45:18.685Z,30.85
2023-03-02T06:48:10.842Z,30.48
2023-03-02T06:51:02.197Z,32.55
2023-03-02T06:53:53.953Z,29.52
2023-03-02T06:59:35.632Z,34.67
2023-03-02T07:02:27.159Z,30.92
2023-03-02T07:05:44.556Z,30.25
2023-03-02T07:08:13.462Z,33.58
2023-03-02T07:11:10.764Z,31.23
2023-03-02T07:14:03.885Z,32.10
2023-03-02T07:16:57.025Z,30.55
2023-03-02T07:19:48.785Z,35.55
2023-03-02T07:22:40.450Z,33.15
2023-03-02T07:25:32.917Z,35.00
2023-03-02T07:28:24.660Z,33.23
2023-03-02T07:31:16.325Z,30.23
2023-03-02T07:34:08.171Z,33.60
2023-03-02T07:36:59.506Z,31.40
2023-03-02T07:39:51.548Z,34.38
2023-03-02T07:42:43.213Z,31.30
2023-03-02T07:45:34.626Z,35.63
2023-03-02T07:48:26.348Z,32.65
2023-03-02T07:51:17.756Z,33.18
2023-03-02T07:54:12.257Z,32.63
2023-03-02T07:57:03.649Z,32.20
2023-03-02T07:59:55.623Z,34.08
2023-03-02T08:02:47.362Z,33.85
2023-03-02T08:05:39.297Z,33.42
2023-03-02T08:08:33.341Z,33.80
2023-03-02T08:11:25.344Z,38.70
2023-03-02T08:14:16.972Z,41.13
2023-03-02T08:17:09.423Z,39.80
2023-03-02T08:20:00.741Z,40.33
2023-03-02T08:22:53.380Z,35.08
2023-03-02T08:25:45.730Z,34.78
2023-03-02T08:28:37.863Z,37.05
2023-03-02T08:31:29.927Z,37.70
2023-03-02T08:34:41.206Z,34.10
2023-03-02T08:37:33.153Z,34.20
2023-03-02T08:40:28.004Z,35.20
2023-03-02T08:43:19.750Z,34.03
2023-03-02T08:46:12.576Z,35.40
2023-03-02T08:49:05.794Z,37.60
2023-03-02T08:51:57.467Z,34.65
2023-03-02T08:54:49.127Z,36.50
2023-03-02T08:57:44.144Z,33.75
2023-03-02T09:00:39.223Z,35.98
2023-03-02T09:03:32.711Z,38.30
2023-03-02T09:06:24.192Z,36.25
2023-03-02T09:09:18.042Z,36.63
2023-03-02T09:12:09.891Z,36.13
2023-03-02T09:15:01.704Z,37.63
2023-03-02T09:17:53.774Z,36.00
2023-03-02T09:20:49.372Z,36.65
2023-03-02T09:23:41.208Z,35.30
2023-03-02T09:26:38.294Z,37.25
2023-03-02T09:29:37.125Z,37.48
2023-03-02T09:32:29.155Z,35.43
2023-03-02T09:35:20.932Z,32.98
2023-03-02T09:38:14.921Z,37.98
2023-03-02T09:41:32.362Z,33.35
2023-03-02T09:44:45.142Z,35.17
2023-03-02T09:47:47.836Z,34.55
2023-03-02T09:50:41.590Z,34.45
2023-03-02T09:53:48.110Z,35.10
2023-03-02T09:56:42.829Z,33.48
2023-03-02T09:59:40.509Z,33.83
2023-03-02T10:02:33.873Z,33.08
2023-03-02T10:05:28.825Z,33.95
2023-03-02T10:08:26.930Z,33.65
2023-03-02T10:14:15.977Z,33.25
2023-03-02T10:17:20.827Z,32.93
2023-03-02T10:20:19.431Z,32.88
2023-03-02T10:23:20.495Z,33.63
2023-03-02T10:54:14.723Z,33.98
2023-03-02T10:57:08.824Z,32.33
2023-03-02T11:00:05.268Z,34.18
2023-03-02T11:03:01.155Z,33.98
2023-03-02T11:05:53.146Z,35.60
2023-03-02T11:08:46.518Z,35.05
2023-03-02T11:11:38.178Z,32.70
2023-03-02T11:14:29.739Z,34.78
2023-03-02T11:17:38.405Z,33.25
2023-03-02T11:20:43.387Z,35.00
2023-03-02T11:23:50.367Z,32.55
2023-03-02T11:26:47.631Z,36.23
2023-03-02T11:44:03.488Z,32.83
2023-03-02T11:46:59.417Z,35.30
2023-03-02T11:49:55.728Z,34.25
2023-03-02T11:52:52.194Z,34.53
2023-03-02T12:12:42.670Z,32.13
2023-03-02T12:15:43.635Z,34.15
2023-03-02T12:18:49.197Z,31.65
2023-03-02T12:21:44.274Z,30.70
2023-03-02T12:24:37.902Z,29.95
2023-03-02T12:27:31.631Z,34.27
2023-03-02T12:30:30.796Z,30.05
2023-03-02T12:33:23.615Z,33.15
2023-03-02T12:36:20.320Z,33.70
2023-03-02T12:39:18.762Z,30.48
2023-03-02T12:42:36.146Z,31.68
2023-03-02T12:45:45.629Z,32.20
2023-03-02T12:48:42.453Z,31.37
2023-03-02T12:51:39.194Z,27.13
2023-03-02T12:57:52.858Z,30.00
2023-03-02T13:00:49.806Z,19.05
2023-03-02T13:03:47.688Z,29.00
2023-03-02T13:06:42.330Z,25.05
2023-03-02T13:09:34.414Z,26.93
2023-03-02T13:12:31.037Z,27.35
2023-03-02T13:15:22.756Z,29.00
2023-03-02T13:18:15.481Z,27.17
2023-03-02T13:21:13.012Z,30.17
2023-03-02T13:24:05.135Z,28.62
2023-03-02T13:26:59.715Z,30.70
2023-03-02T13:29:52.983Z,30.65
2023-03-02T13:32:45.034Z,32.33
2023-03-02T13:35:38.650Z,26.65
2023-03-02T13:38:33.451Z,28.98
2023-03-02T13:41:26.300Z,28.90
2023-03-02T13:44:24.898Z,30.10
2023-03-02T13:47:24.762Z,27.93
2023-03-02T13:50:23.071Z,28.55
2023-03-02T13:53:15.128Z,26.17
2023-03-02T13:56:07.226Z,29.10
2023-03-02T13:58:59.342Z,28.47
2023-03-02T14:01:51.751Z,29.25
2023-03-02T14:04:43.442Z,28.17
2023-03-02T14:07:35.797Z,26.00
2023-03-02T14:10:30.645Z,27.35
2023-03-02T14:13:25.613Z,25.55
2023-03-02T14:16:18.241Z,27.60
2023-03-02T14:19:11.342Z,33.85
2023-03-02T14:22:03.112Z,29.02
2023-03-02T14:24:57.996Z,28.05
2023-03-02T14:27:49.781Z,24.80
2023-03-02T14:30:44.354Z,29.87
2023-03-02T14:33:36.791Z,26.05
2023-03-02T14:36:32.075Z,26.90
2023-03-02T14:42:06.450Z,28.20
2023-03-02T14:44:59.754Z,26.82
2023-03-02T14:47:51.396Z,29.37
2023-03-02T14:50:45.771Z,25.85
2023-03-02T14:53:37.911Z,27.58
2023-03-02T14:56:29.650Z,27.25
2023-03-02T14:59:20.863Z,25.12
2023-03-02T15:02:24.883Z,27.48
2023-03-02T15:05:07.470Z,23.70
2023-03-02T15:07:59.100Z,24.27
2023-03-02T15:10:51.838Z,24.18
2023-03-02T15:13:45.663Z,25.52
2023-03-02T15:16:36.840Z,23.15
2023-03-02T15:19:28.339Z,23.27
2023-03-02T15:22:21.850Z,26.20
2023-03-02T15:27:53.617Z,23.60
2023-03-02T15:30:45.541Z,25.32
2023-03-02T15:33:37.617Z,25.50
2023-03-02T15:36:29.378Z,24.90
2023-03-02T15:39:21.036Z,24.12
2023-03-02T15:42:14.065Z,24.75
2023-03-02T15:45:09.008Z,26.87
2023-03-02T15:48:00.588Z,23.35
2023-03-02T15:51:00.374Z,24.50
2023-03-02T15:53:52.008Z,24.55
2023-03-02T15:57:01.154Z,23.18
2023-03-02T15:59:52.344Z,21.25
2023-03-02T16:02:44.128Z,22.22
2023-03-02T16:05:35.660Z,25.75
2023-03-02T16:08:27.251Z,23.18
2023-03-02T16:11:20.204Z,21.33
2023-03-02T16:14:14.291Z,21.00
2023-03-02T16:17:06.181Z,21.37
2023-03-02T16:19:57.970Z,22.70
2023-03-02T16:22:49.694Z,21.57
2023-03-02T16:25:44.568Z,22.35
2023-03-02T16:28:36.419Z,17.20
2023-03-02T16:31:29.366Z,21.95
2023-03-02T16:34:20.829Z,20.82
2023-03-02T16:37:13.304Z,24.00
2023-03-02T16:40:05.083Z,22.05
2023-03-02T16:42:57.005Z,23.73
2023-03-02T16:45:50.115Z,21.42
2023-03-02T16:48:41.669Z,22.13
2023-03-02T16:51:33.422Z,22.98
2023-03-02T16:54:25.543Z,22.20
2023-03-02T16:57:17.220Z,22.70
2023-03-02T17:00:12.341Z,22.30
2023-03-02T17:03:03.945Z,22.17
2023-03-02T17:05:55.740Z,21.90
2023-03-02T17:08:47.353Z,23.55
2023-03-02T17:11:38.909Z,20.80
2023-03-02T17:14:30.631Z,19.27
2023-03-02T17:17:22.091Z,20.23
2023-03-02T17:20:15.721Z,19.50
2023-03-02T17:23:07.516Z,20.32
2023-03-02T17:25:59.013Z,22.60
2023-03-02T17:28:56.317Z,18.60
2023-03-02T17:31:47.937Z,14.75
2023-03-02T17:34:39.285Z,19.48
2023-03-02T17:37:33.763Z,19.37
2023-03-02T17:40:25.852Z,18.87
2023-03-02T17:43:17.655Z,21.77
2023-03-02T17:46:21.077Z,22.17
2023-03-02T17:49:13.371Z,20.08
2023-03-02T17:52:06.463Z,18.17
2023-03-02T17:54:57.475Z,20.65
2023-03-02T17:57:49.069Z,22.50
2023-03-02T18:00:41.407Z,21.20
2023-03-02T18:03:32.857Z,23.90
2023-03-02T18:06:25.863Z,22.80
2023-03-02T18:09:17.754Z,22.58
2023-03-02T18:12:10.649Z,23.62
2023-03-02T18:15:02.513Z,24.43
2023-03-02T18:17:53.888Z,22.45
2023-03-02T18:20:45.745Z,20.85
2023-03-02T18:23:37.558Z,24.43
2023-03-02T18:26:32.231Z,26.20
2023-03-02T18:29:24.381Z,18.62
2023-03-02T18:32:16.390Z,22.87
2023-03-02T18:35:09.276Z,23.87
2023-03-02T18:38:00.683Z,22.42
2023-03-02T18:40:52.319Z,22.10
2023-03-02T18:43:44.629Z,21.48
2023-03-02T18:46:36.904Z,23.12
2023-03-02T18:49:28.760Z,23.70
2023-03-02T18:52:20.099Z,24.02
2023-03-02T18:55:12.793Z,26.10
2023-03-02T18:58:05.024Z,24.12
2023-03-02T19:00:57.263Z,21.95
2023-03-02T19:03:49.271Z,21.73
2023-03-02T19:06:40.942Z,23.52
2023-03-02T19:09:32.501Z,26.10
2023-03-02T19:12:23.994Z,26.60
2023-03-02T19:15:15.738Z,30.40
2023-03-02T19:18:07.357Z,24.75
2023-03-02T19:21:01.432Z,27.25
2023-03-02T19:23:52.352Z,30.15
2023-03-02T19:26:43.942Z,29.67
2023-03-02T19:29:35.496Z,26.37
2023-03-02T19:32:27.100Z,29.35
2023-03-02T19:35:19.373Z,29.27
2023-03-02T19:38:11.583Z,27.55
2023-03-02T19:41:03.207Z,28.65
2023-03-02T19:43:54.506Z,23.77
2023-03-02T19:46:46.039Z,26.77
2023-03-02T19:49:37.806Z,21.65
2023-03-02T19:52:29.427Z,21.95
2023-03-02T19:55:21.959Z,23.25
2023-03-02T19:58:16.739Z,29.52
2023-03-02T20:01:10.678Z,27.62
2023-03-02T20:04:00.947Z,25.40
2023-03-02T20:06:52.228Z,28.32
2023-03-02T20:09:43.896Z,27.85
2023-03-02T20:12:37.759Z,28.23
2023-03-02T20:15:31.203Z,25.65
2023-03-02T20:18:22.655Z,27.00
2023-03-02T20:21:17.974Z,22.13
2023-03-02T20:24:10.208Z,26.15
2023-03-02T20:27:16.800Z,27.15
2023-03-02T20:30:12.480Z,25.37
2023-03-02T20:37:41.898Z,26.82
2023-03-02T20:40:34.884Z,25.35
2023-03-02T20:43:28.462Z,28.90
2023-03-02T20:46:23.956Z,25.02
2023-03-02T20:49:16.787Z,27.60
2023-03-02T20:52:09.551Z,26.93
2023-03-02T20:55:01.979Z,25.02
2023-03-02T20:58:07.975Z,30.95
2023-03-02T21:00:56.041Z,25.05
2023-03-02T21:04:07.136Z,26.25
2023-03-02T21:07:00.146Z,26.48
2023-03-02T21:09:52.151Z,24.65
2023-03-02T21:12:49.081Z,27.00
2023-03-02T21:15:41.399Z,26.33
2023-03-02T21:18:34.672Z,27.22
2023-03-02T21:21:40.741Z,28.27
2023-03-02T21:24:20.949Z,27.13
2023-03-02T21:27:12.729Z,28.35
2023-03-02T21:30:06.380Z,30.12
2023-03-02T21:33:00.392Z,25.37
2023-03-02T21:35:52.253Z,25.55
2023-03-02T21:38:44.670Z,25.85
2023-03-02T21:41:37.218Z,28.02
2023-03-02T21:44:28.845Z,27.37
2023-03-02T21:47:21.823Z,26.42
2023-03-02T21:53:03.544Z,28.23
2023-03-02T21:55:55.232Z,27.20
2023-03-02T21:58:47.438Z,28.05
2023-03-02T22:01:39.394Z,25.37
2023-03-02T22:04:39.023Z,26.02
2023-03-02T22:07:35.289Z,32.17
2023-03-02T22:10:30.694Z,26.05
2023-03-02T22:13:25.757Z,23.25
2023-03-02T22:19:13.047Z,21.17
2023-03-02T22:22:08.969Z,29.57
2023-03-02T22:25:00.240Z,30.75
2023-03-02T22:27:51.774Z,26.80
2023-03-02T22:30:43.167Z,21.93
2023-03-02T22:33:36.837Z,30.82
2023-03-02T22:36:28.431Z,29.50
2023-03-02T22:39:24.157Z,27.52
2023-03-02T22:42:18.553Z,28.62
2023-03-02T22:45:15.569Z,27.27
2023-03-02T22:48:14.835Z,28.02
2023-03-02T22:51:14.011Z,29.02
2023-03-02T22:54:08.989Z,28.07
2023-03-02T22:57:00.523Z,28.12
2023-03-02T23:00:05.836Z,29.32
2023-03-02T23:02:58.516Z,27.98
2023-03-02T23:05:51.952Z,26.33
2023-03-02T23:08:45.343Z,28.52
2023-03-02T23:28:07.025Z,28.25
2023-03-02T23:30:58.251Z,29.72
2023-03-02T23:33:50.140Z,27.27
2023-03-02T23:36:42.006Z,29.30
2023-03-02T23:39:33.631Z,29.07
2023-03-02T23:42:25.289Z,29.32
2023-03-02T23:45:16.968Z,29.18
2023-03-02T23:48:08.636Z,34.15
2023-03-02T23:50:59.992Z,30.90
2023-03-02T23:53:51.566Z,28.38
2023-03-02T23:56:43.180Z,31.02
2023-03-02T23:59:34.779Z,29.72
